createdAt,value
2023-01-03T00:01:07.503Z,10.00
2023-01-03T00:03:54.738Z,10.00
2023-01-03T00:06:44.000Z,10.00
2023-01-03T00:09:31.942Z,10.00
2023-01-03T00:12:30.793Z,10.00
2023-01-03T00:15:18.309Z,10.00
2023-01-03T00:18:05.667Z,10.00
2023-01-03T00:20:52.574Z,9.90
2023-01-03T00:23:39.095Z,10.00
2023-01-03T00:26:26.912Z,9.80
2023-01-03T00:29:13.751Z,9.80
2023-01-03T00:32:00.700Z,9.80
2023-01-03T00:34:48.030Z,9.80
2023-01-03T00:37:34.385Z,9.70
2023-01-03T00:40:20.775Z,9.70
2023-01-03T00:43:25.642Z,9.70
2023-01-03T00:46:14.035Z,9.60
2023-01-03T00:49:00.668Z,9.50
2023-01-03T00:51:47.114Z,9.60
2023-01-03T00:54:34.157Z,9.70
2023-01-03T00:57:20.638Z,9.70
2023-01-03T01:00:09.881Z,9.70
2023-01-03T01:02:56.726Z,9.70
2023-01-03T01:05:43.358Z,9.70
2023-01-03T01:08:29.610Z,9.80
2023-01-03T01:11:17.017Z,9.80
2023-01-03T01:14:03.563Z,9.80
2023-01-03T01:16:53.218Z,9.80
2023-01-03T01:19:42.910Z,9.80
2023-01-03T01:22:29.264Z,9.80
2023-01-03T01:25:15.724Z,9.80
2023-01-03T01:28:02.139Z,9.90
2023-01-03T01:30:48.558Z,9.90
2023-01-03T01:33:37.750Z,9.90
2023-01-03T01:36:26.574Z,9.80
2023-01-03T01:39:14.812Z,9.90
2023-01-03T01:42:24.049Z,10.00
2023-01-03T01:45:15.892Z,9.90
2023-01-03T01:48:07.180Z,9.90
2023-01-03T01:50:57.009Z,10.00
2023-01-03T01:53:44.069Z,9.90
2023-01-03T01:56:35.467Z,9.90
2023-01-03T01:59:22.244Z,9.70
2023-01-03T02:02:10.093Z,9.70
2023-01-03T02:09:07.453Z,9.60
2023-01-03T02:12:11.228Z,9.70
2023-01-03T02:15:09.870Z,9.70
2023-01-03T02:18:11.352Z,9.70
2023-01-03T02:21:41.581Z,9.70
2023-01-03T02:25:03.749Z,9.80
2023-01-03T02:28:28.933Z,9.80
2023-01-03T02:31:25.404Z,9.80
2023-01-03T02:34:21.253Z,9.80
2023-01-03T02:37:16.662Z,9.90
2023-01-03T02:40:09.706Z,9.90
2023-01-03T02:43:01.993Z,9.90
2023-01-03T02:46:02.934Z,9.90
2023-01-03T02:48:54.997Z,10.00
2023-01-03T02:51:46.923Z,9.90
2023-01-03T02:54:38.490Z,9.90
2023-01-03T02:57:30.610Z,9.80
2023-01-03T03:00:19.883Z,9.70
2023-01-03T03:03:11.780Z,9.70
2023-01-03T03:06:13.705Z,9.60
2023-01-03T03:09:00.312Z,9.60
2023-01-03T03:12:17.974Z,9.50
2023-01-03T03:15:06.430Z,9.20
2023-01-03T03:17:58.912Z,9.00
2023-01-03T03:21:02.486Z,8.90
2023-01-03T03:24:10.112Z,8.90
2023-01-03T03:26:59.305Z,9.00
2023-01-03T03:29:44.666Z,9.00
2023-01-03T03:32:34.998Z,9.10
2023-01-03T03:35:25.449Z,9.00
2023-01-03T03:38:15.137Z,8.90
2023-01-03T03:41:31.509Z,8.90
2023-01-03T03:44:44.837Z,8.90
2023-01-03T03:47:39.589Z,8.70
2023-01-03T03:50:31.451Z,8.70
2023-01-03T03:53:22.305Z,8.70
2023-01-03T03:56:13.594Z,8.80
2023-01-03T03:59:06.327Z,8.80
2023-01-03T04:01:54.927Z,8.70
2023-01-03T04:04:45.450Z,8.60
2023-01-03T04:07:32.009Z,8.40
2023-01-03T04:10:20.655Z,8.30
2023-01-03T04:13:08.883Z,8.10
2023-01-03T04:15:55.532Z,8.10
2023-01-03T04:18:42.270Z,8.10
2023-01-03T04:21:29.103Z,8.10
2023-01-03T04:24:15.694Z,8.20
2023-01-03T04:27:02.322Z,8.30
2023-01-03T04:29:50.817Z,8.40
2023-01-03T04:32:37.225Z,8.60
2023-01-03T04:35:23.674Z,8.70
2023-01-03T04:38:10.521Z,8.70
2023-01-03T04:40:56.847Z,8.50
2023-01-03T04:44:00.582Z,8.20
2023-01-03T04:46:52.848Z,8.10
2023-01-03T04:49:40.150Z,7.90
2023-01-03T04:52:26.465Z,7.70
2023-01-03T04:55:13.133Z,7.70
2023-01-03T04:57:59.717Z,7.50
2023-01-03T05:00:46.284Z,7.30
2023-01-03T05:03:34.470Z,7.20
2023-01-03T05:06:20.872Z,7.30
2023-01-03T05:09:07.543Z,7.30
2023-01-03T05:11:53.847Z,7.30
2023-01-03T05:14:41.456Z,7.60
2023-01-03T05:17:28.291Z,7.80
2023-01-03T05:20:33.579Z,7.90
2023-01-03T05:23:48.954Z,8.00
2023-01-03T05:26:38.731Z,8.20
2023-01-03T05:29:25.325Z,8.30
2023-01-03T05:32:11.630Z,8.30
2023-01-03T05:34:58.433Z,8.40
2023-01-03T05:37:47.357Z,8.40
2023-01-03T05:40:39.244Z,8.50
2023-01-03T05:43:27.574Z,8.40
2023-01-03T05:46:14.274Z,8.30
2023-01-03T05:49:01.181Z,8.30
2023-01-03T05:51:47.582Z,8.30
2023-01-03T05:54:35.474Z,8.30
2023-01-03T05:57:21.838Z,8.30
2023-01-03T06:00:09.538Z,8.40
2023-01-03T06:02:56.329Z,8.30
2023-01-03T06:05:49.529Z,8.30
2023-01-03T06:08:37.773Z,8.30
2023-01-03T06:11:25.825Z,8.20
2023-01-03T06:14:12.755Z,8.10
2023-01-03T06:17:17.198Z,8.00
2023-01-03T06:20:03.646Z,8.10
2023-01-03T06:22:50.057Z,8.10
2023-01-03T06:25:36.367Z,8.10
2023-01-03T06:28:25.622Z,8.00
2023-01-03T06:31:12.799Z,8.00
2023-01-03T06:33:59.091Z,8.00
2023-01-03T06:36:45.598Z,8.10
2023-01-03T06:39:33.390Z,8.00
2023-01-03T06:42:37.404Z,7.80
2023-01-03T06:45:42.619Z,7.80
2023-01-03T06:48:46.752Z,7.70
2023-01-03T06:51:51.280Z,7.70
2023-01-03T06:54:39.298Z,7.70
2023-01-03T06:57:27.308Z,7.50
2023-01-03T07:00:15.101Z,7.30
2023-01-03T07:03:08.914Z,7.30
2023-01-03T07:05:58.886Z,7.30
2023-01-03T07:08:48.437Z,7.30
2023-01-03T07:11:35.650Z,7.30
2023-01-03T07:14:21.159Z,7.20
2023-01-03T07:17:07.723Z,7.30
2023-01-03T07:19:55.437Z,7.10
2023-01-03T07:22:41.990Z,6.90
2023-01-03T07:25:28.510Z,6.80
2023-01-03T07:28:16.624Z,6.60
2023-01-03T07:31:05.696Z,6.60
2023-01-03T07:33:53.135Z,6.70
2023-01-03T07:36:44.269Z,6.70
2023-01-03T07:39:30.877Z,6.70
2023-01-03T07:42:34.674Z,6.70
2023-01-03T07:45:21.199Z,6.80
2023-01-03T07:48:08.003Z,6.80
2023-01-03T07:50:58.098Z,6.90
2023-01-03T07:53:46.461Z,7.10
2023-01-03T07:56:32.952Z,7.10
2023-01-03T07:59:19.489Z,7.20
2023-01-03T08:02:06.053Z,7.40
2023-01-03T08:04:52.866Z,7.40
2023-01-03T08:07:39.766Z,7.30
2023-01-03T08:10:45.433Z,7.30
2023-01-03T08:13:32.152Z,7.10
2023-01-03T08:16:19.799Z,6.90
2023-01-03T08:19:06.316Z,7.10
2023-01-03T08:21:52.865Z,7.10
2023-01-03T08:24:39.139Z,7.00
2023-01-03T08:27:26.907Z,7.10
2023-01-03T08:30:13.525Z,7.10
2023-01-03T08:33:04.888Z,7.10
2023-01-03T08:35:57.185Z,7.00
2023-01-03T08:38:48.251Z,6.90
2023-01-03T08:41:39.769Z,6.90
2023-01-03T08:44:27.881Z,7.00
2023-01-03T08:47:15.930Z,7.10
2023-01-03T08:50:03.364Z,7.20
2023-01-03T08:52:50.326Z,7.30
2023-01-03T08:55:36.603Z,7.50
2023-01-03T08:58:23.073Z,7.50
2023-01-03T09:01:11.565Z,7.60
2023-01-03T09:03:58.104Z,7.60
2023-01-03T09:06:44.984Z,7.80
2023-01-03T09:09:31.386Z,7.70
2023-01-03T09:12:17.877Z,7.80
2023-01-03T09:15:05.234Z,7.80
2023-01-03T09:17:53.217Z,7.90
2023-01-03T09:20:39.740Z,7.80
2023-01-03T09:23:26.368Z,7.80
2023-01-03T09:26:13.048Z,7.60
2023-01-03T09:28:59.849Z,7.50
2023-01-03T09:31:46.279Z,7.50
2023-01-03T09:34:34.653Z,7.70
2023-01-03T09:37:21.293Z,7.80
2023-01-03T09:40:09.024Z,7.90
2023-01-03T09:43:09.563Z,8.10
2023-01-03T09:45:58.603Z,8.10
2023-01-03T09:48:46.000Z,8.10
2023-01-03T09:51:56.281Z,8.20
2023-01-03T09:55:01.450Z,8.30
2023-01-03T09:58:05.564Z,8.50
2023-01-03T10:01:10.908Z,8.40
2023-01-03T10:04:08.121Z,8.60
2023-01-03T10:07:07.174Z,8.60
2023-01-03T10:10:01.759Z,8.60
2023-01-03T10:13:01.416Z,8.70
2023-01-03T10:15:57.547Z,8.70
2023-01-03T10:19:01.165Z,8.60
2023-01-03T10:21:59.551Z,8.50
2023-01-03T10:24:50.185Z,8.60
2023-01-03T10:27:39.519Z,8.60
2023-01-03T10:30:38.677Z,8.60
2023-01-03T10:33:31.904Z,8.60
2023-01-03T10:36:20.358Z,8.90
2023-01-03T10:39:09.577Z,9.00
2023-01-03T10:41:59.597Z,9.20
2023-01-03T10:44:58.643Z,9.30
2023-01-03T10:47:45.365Z,9.50
2023-01-03T10:50:38.777Z,9.60
2023-01-03T10:53:26.095Z,9.60
2023-01-03T10:56:16.499Z,9.70
2023-01-03T10:59:17.595Z,9.80
2023-01-03T11:02:17.532Z,9.80
2023-01-03T11:05:12.349Z,9.90
2023-01-03T11:08:03.162Z,10.00
2023-01-03T11:10:58.075Z,10.20
2023-01-03T11:13:44.680Z,10.30
2023-01-03T11:16:33.716Z,10.40
2023-01-03T11:19:21.478Z,10.40
2023-01-03T11:22:15.481Z,10.50
2023-01-03T11:25:16.717Z,10.60
2023-01-03T11:28:29.477Z,10.70
2023-01-03T11:31:27.934Z,10.90
2023-01-03T11:34:55.102Z,11.00
2023-01-03T11:37:48.181Z,11.00
2023-01-03T11:40:45.211Z,11.30
2023-01-03T11:43:46.485Z,11.40
2023-01-03T11:46:50.144Z,11.40
2023-01-03T11:49:51.243Z,11.70
2023-01-03T11:52:44.084Z,12.00
2023-01-03T11:55:54.812Z,12.10
2023-01-03T11:59:08.152Z,12.30
2023-01-03T12:02:36.978Z,12.30
2023-01-03T12:05:43.513Z,12.40
2023-01-03T12:08:53.870Z,12.50
2023-01-03T12:11:52.509Z,12.80
2023-01-03T12:14:42.265Z,13.00
2023-01-03T12:17:39.828Z,13.00
2023-01-03T12:20:32.573Z,13.00
2023-01-03T12:23:31.097Z,13.20
2023-01-03T12:26:17.995Z,13.30
2023-01-03T12:29:17.817Z,13.40
2023-01-03T12:32:11.798Z,13.30
2023-01-03T12:35:13.006Z,13.10
2023-01-03T12:38:00.066Z,13.00
2023-01-03T12:40:56.514Z,13.10
2023-01-03T12:43:49.855Z,13.10
2023-01-03T12:46:42.203Z,13.10
2023-01-03T12:49:35.756Z,13.10
2023-01-03T12:52:25.423Z,13.10
2023-01-03T12:55:22.123Z,13.00
2023-01-03T12:58:39.374Z,13.10
2023-01-03T13:01:30.631Z,12.90
2023-01-03T13:04:24.227Z,12.70
2023-01-03T13:07:17.806Z,12.70
2023-01-03T13:10:07.797Z,12.70
2023-01-03T13:12:54.567Z,12.60
2023-01-03T13:15:42.706Z,12.70
2023-01-03T13:18:37.334Z,12.60
2023-01-03T13:21:51.992Z,12.50
2023-01-03T13:24:43.443Z,12.30
2023-01-03T13:27:38.370Z,12.10
2023-01-03T13:30:26.084Z,12.00
2023-01-03T13:33:21.785Z,11.90
2023-01-03T13:36:09.635Z,11.80
2023-01-03T13:38:56.543Z,11.80
2023-01-03T13:41:43.266Z,11.80
2023-01-03T13:44:29.944Z,11.60
2023-01-03T13:47:31.821Z,11.50
2023-01-03T13:50:25.548Z,11.40
2023-01-03T13:53:27.634Z,11.30
2023-01-03T13:56:24.051Z,11.30
2023-01-03T13:59:30.455Z,11.30
2023-01-03T14:02:48.785Z,11.30
2023-01-03T14:06:15.140Z,11.30
2023-01-03T14:09:33.354Z,11.20
2023-01-03T14:12:57.144Z,11.30
2023-01-03T14:15:44.430Z,11.30
2023-01-03T14:18:32.281Z,11.10
2023-01-03T14:21:26.337Z,11.10
2023-01-03T14:24:24.060Z,11.00
2023-01-03T14:27:17.178Z,11.00
2023-01-03T14:30:06.348Z,11.00
2023-01-03T14:32:53.267Z,11.00
2023-01-03T14:35:41.416Z,11.00
2023-01-03T14:38:31.384Z,11.10
2023-01-03T14:41:29.787Z,11.10
2023-01-03T14:44:18.145Z,11.00
2023-01-03T14:47:08.961Z,11.10
2023-01-03T14:49:55.747Z,11.00
2023-01-03T14:52:45.670Z,11.00
2023-01-03T14:55:34.649Z,11.10
2023-01-03T14:58:32.758Z,11.20
2023-01-03T15:01:20.141Z,11.20
2023-01-03T15:04:07.588Z,11.10
2023-01-03T15:07:04.879Z,11.00
2023-01-03T15:10:04.189Z,11.00
2023-01-03T15:13:00.663Z,10.90
2023-01-03T15:15:55.557Z,10.90
2023-01-03T15:18:43.042Z,10.80
2023-01-03T15:21:31.515Z,10.70
2023-01-03T15:24:20.285Z,10.60
2023-01-03T15:27:39.729Z,10.50
2023-01-03T15:30:28.985Z,10.50
2023-01-03T15:33:32.180Z,10.50
2023-01-03T15:36:20.004Z,10.40
2023-01-03T15:39:09.671Z,10.40
2023-01-03T15:42:43.627Z,10.40
2023-01-03T15:45:26.728Z,10.20
2023-01-03T15:48:21.469Z,10.30
2023-01-03T15:51:08.013Z,10.20
2023-01-03T15:53:55.141Z,10.20
2023-01-03T15:56:48.533Z,10.20
2023-01-03T15:59:42.980Z,10.20
2023-01-03T16:02:32.297Z,10.20
2023-01-03T16:05:22.989Z,10.20
2023-01-03T16:08:26.084Z,10.20
2023-01-03T16:11:19.765Z,10.20
2023-01-03T16:14:11.264Z,10.20
2023-01-03T16:16:57.900Z,10.00
2023-01-03T16:19:44.339Z,9.80
2023-01-03T16:22:36.548Z,9.60
2023-01-03T16:25:25.586Z,9.40
2023-01-03T16:28:12.719Z,9.10
2023-01-03T16:31:05.445Z,8.80
2023-01-03T16:33:52.814Z,8.40
2023-01-03T16:36:41.367Z,8.10
2023-01-03T16:39:29.316Z,7.80
2023-01-03T16:42:15.781Z,7.70
2023-01-03T16:45:02.742Z,7.80
2023-01-03T16:47:50.024Z,7.80
2023-01-03T16:50:39.922Z,7.70
2023-01-03T16:53:32.827Z,7.80
2023-01-03T16:56:20.541Z,7.90
2023-01-03T16:59:11.077Z,8.10
2023-01-03T17:01:58.028Z,7.90
2023-01-03T17:04:44.980Z,7.90
2023-01-03T17:07:31.728Z,7.80
2023-01-03T17:10:27.052Z,7.70
2023-01-03T17:13:27.233Z,7.80
2023-01-03T17:16:15.915Z,7.70
2023-01-03T17:19:02.767Z,7.50
2023-01-03T17:21:51.442Z,7.30
2023-01-03T17:24:38.170Z,6.80
2023-01-03T17:27:31.977Z,6.50
2023-01-03T17:30:23.681Z,6.50
2023-01-03T17:33:14.693Z,6.50
2023-01-03T17:36:01.645Z,6.60
2023-01-03T17:38:48.350Z,6.60
2023-01-03T17:41:55.255Z,6.60
2023-01-03T17:44:44.276Z,6.80
2023-01-03T17:48:01.355Z,6.90
2023-01-03T17:50:47.960Z,7.00
2023-01-03T17:53:34.462Z,7.00
2023-01-03T17:56:21.569Z,7.00
2023-01-03T17:59:08.113Z,7.10
2023-01-03T18:01:56.171Z,7.10
2023-01-03T18:05:14.226Z,7.10
2023-01-03T18:07:51.176Z,7.10
2023-01-03T18:10:45.859Z,7.00
2023-01-03T18:13:35.638Z,7.00
2023-01-03T18:16:23.761Z,7.10
2023-01-03T18:19:10.953Z,7.10
2023-01-03T18:22:00.273Z,7.10
2023-01-03T18:24:47.161Z,7.00
2023-01-03T18:27:34.131Z,7.00
2023-01-03T18:30:20.784Z,7.00
2023-01-03T18:33:07.738Z,7.00
2023-01-03T18:35:54.886Z,6.90
2023-01-03T18:38:42.725Z,6.80
2023-01-03T18:41:32.068Z,7.00
2023-01-03T18:44:21.274Z,7.00
2023-01-03T18:47:12.672Z,7.20
2023-01-03T18:49:59.555Z,7.20
2023-01-03T18:52:47.353Z,7.10
2023-01-03T18:55:36.597Z,7.00
2023-01-03T18:58:31.636Z,6.90
2023-01-03T19:01:19.134Z,6.90
2023-01-03T19:04:06.152Z,7.00
2023-01-03T19:06:53.046Z,6.50
2023-01-03T19:09:39.518Z,6.40
2023-01-03T19:12:27.642Z,6.50
2023-01-03T19:15:17.749Z,6.60
2023-01-03T19:18:04.968Z,6.60
2023-01-03T19:20:52.188Z,6.60
2023-01-03T19:23:40.164Z,6.50
2023-01-03T19:26:30.851Z,6.40
2023-01-03T19:29:22.057Z,6.10
2023-01-03T19:32:16.565Z,5.90
2023-01-03T19:35:03.083Z,5.80
2023-01-03T19:37:50.044Z,5.60
2023-01-03T19:40:38.449Z,5.50
2023-01-03T19:43:25.546Z,5.50
2023-01-03T19:46:17.428Z,5.60
2023-01-03T19:49:04.308Z,5.50
2023-01-03T19:51:50.898Z,5.40
2023-01-03T19:54:37.530Z,5.20
2023-01-03T19:57:30.144Z,5.00
2023-01-03T20:00:21.358Z,4.80
2023-01-03T20:03:19.187Z,4.70
2023-01-03T20:06:06.851Z,4.70
2023-01-03T20:08:53.928Z,4.70
2023-01-03T20:11:41.950Z,4.60
2023-01-03T20:14:28.875Z,4.90
2023-01-03T20:17:21.730Z,5.10
2023-01-03T20:20:10.842Z,5.30
2023-01-03T20:23:08.556Z,5.40
2023-01-03T20:25:55.263Z,5.30
2023-01-03T20:28:42.305Z,5.40
2023-01-03T20:31:29.766Z,5.20
2023-01-03T20:34:16.695Z,5.00
2023-01-03T20:37:05.257Z,5.10
2023-01-03T20:39:51.993Z,5.20
2023-01-03T20:42:38.570Z,5.40
2023-01-03T20:45:25.109Z,5.50
2023-01-03T20:48:20.839Z,5.60
2023-01-03T20:51:13.276Z,5.70
2023-01-03T20:54:01.338Z,5.80
2023-01-03T20:56:48.352Z,5.80
2023-01-03T20:59:35.054Z,5.70
2023-01-03T21:02:21.603Z,5.80
2023-01-03T21:05:08.751Z,5.90
2023-01-03T21:08:12.978Z,5.90
2023-01-03T21:11:01.009Z,5.70
2023-01-03T21:13:47.646Z,5.50
2023-01-03T21:16:36.619Z,5.50
2023-01-03T21:19:24.656Z,5.30
2023-01-03T21:22:19.875Z,5.00
2023-01-03T21:25:08.074Z,4.80
2023-01-03T21:27:55.973Z,4.70
2023-01-03T21:30:43.249Z,4.70
2023-01-03T21:33:30.071Z,4.70
2023-01-03T21:36:23.411Z,4.60
2023-01-03T21:39:11.268Z,4.70
2023-01-03T21:42:15.439Z,4.70
2023-01-03T21:45:03.764Z,4.70
2023-01-03T21:47:50.276Z,4.90
2023-01-03T21:50:39.911Z,5.20
2023-01-03T21:53:26.509Z,5.40
2023-01-03T21:56:19.412Z,5.40
2023-01-03T21:59:06.107Z,5.50
2023-01-03T22:02:11.287Z,5.50
2023-01-03T22:04:57.869Z,5.40
2023-01-03T22:07:44.687Z,5.30
2023-01-03T22:10:31.973Z,5.30
2023-01-03T22:13:18.463Z,5.10
2023-01-03T22:16:05.820Z,5.10
2023-01-03T22:18:54.027Z,5.20
2023-01-03T22:21:40.720Z,5.20
2023-01-03T22:24:27.015Z,5.20
2023-01-03T22:27:13.769Z,5.20
2023-01-03T22:30:00.642Z,5.30
2023-01-03T22:32:47.907Z,5.40
2023-01-03T22:35:35.613Z,5.30
2023-01-03T22:38:22.178Z,5.20
2023-01-03T22:41:10.027Z,4.80
2023-01-03T22:43:56.591Z,4.50
2023-01-03T22:46:43.119Z,4.50
2023-01-03T22:49:29.390Z,4.60
2023-01-03T22:52:17.145Z,4.70
2023-01-03T22:55:03.637Z,4.80
2023-01-03T22:57:49.967Z,5.00
2023-01-03T23:00:36.237Z,5.00
2023-01-03T23:03:22.705Z,5.00
2023-01-03T23:06:10.784Z,4.90
2023-01-03T23:08:59.093Z,5.00
2023-01-03T23:12:02.745Z,5.00
2023-01-03T23:14:49.363Z,5.20
2023-01-03T23:17:53.342Z,5.20
2023-01-03T23:20:47.865Z,5.30
2023-01-03T23:23:34.453Z,5.30
2023-01-03T23:26:22.389Z,5.20
2023-01-03T23:29:14.374Z,5.30
2023-01-03T23:32:01.188Z,5.40
2023-01-03T23:34:47.422Z,5.40
2023-01-03T23:37:33.672Z,5.50
2023-01-03T23:40:19.976Z,5.20
2023-01-03T23:43:07.822Z,5.10
2023-01-03T23:45:54.340Z,4.80
2023-01-03T23:48:41.325Z,4.50
2023-01-03T23:51:27.838Z,4.60
2023-01-03T23:54:14.430Z,4.70
2023-01-03T23:57:00.868Z,4.80
2023-01-03T23:59:48.636Z,4.80
